sensor_id;sensor_type;location;lat;lon;timestamp;P1;durP1;ratioP1;P2;durP2;ratioP2
61025;SDS011;46911;32.650;-16.902;2022-07-22T00:01:52;20.33;;;5.82;;
61025;SDS011;46911;32.650;-16.902;2022-07-22T00:03:53;22.30;;;6.45;;
61025;SDS011;46911;32.650;-16.902;2022-07-22T00:05:56;23.02;;;6.32;;
61025;SDS011;46911;32.650;-16.902;2022-07-22T00:08:00;19.80;;;5.72;;
61025;SDS011;46911;32.650;-16.902;2022-07-22T00:10:01;29.38;;;6.00;;
61025;SDS011;46911;32.650;-16.902;2022-07-22T00:12:02;23.25;;;6.30;;
61025;SDS011;46911;32.650;-16.902;2022-07-22T00:14:08;19.15;;;5.55;;
61025;SDS011;46911;32.650;-16.902;2022-07-22T00:16:13;16.65;;;5.63;;
61025;SDS011;46911;32.650;-16.902;2022-07-22T00:18:16;20.70;;;5.80;;
61025;SDS011;46911;32.650;-16.902;2022-07-22T00:20:17;17.48;;;5.72;;
61025;SDS011;46911;32.650;-16.902;2022-07-22T00:22:19;24.23;;;6.20;;
61025;SDS011;46911;32.650;-16.902;2022-07-22T00:24:20;21.88;;;5.93;;
61025;SDS011;46911;32.650;-16.902;2022-07-22T00:26:21;28.40;;;5.82;;
61025;SDS011;46911;32.650;-16.902;2022-07-22T00:28:24;21.85;;;5.25;;
61025;SDS011;46911;32.650;-16.902;2022-07-22T00:30:27;32.90;;;6.63;;
61025;SDS011;46911;32.650;-16.902;2022-07-22T00:32:28;22.50;;;5.63;;
61025;SDS011;46911;32.650;-16.902;2022-07-22T00:34:33;31.90;;;6.18;;
61025;SDS011;46911;32.650;-16.902;2022-07-22T00:36:39;23.83;;;5.50;;
61025;SDS011;46911;32.650;-16.902;2022-07-22T00:38:44;26.85;;;5.35;;
61025;SDS011;46911;32.650;-16.902;2022-07-22T00:40:45;23.25;;;4.53;;
61025;SDS011;46911;32.650;-16.902;2022-07-22T00:42:46;24.67;;;5.57;;
61025;SDS011;46911;32.650;-16.902;2022-07-22T00:44:49;28.15;;;6.03;;
61025;SDS011;46911;32.650;-16.902;2022-07-22T00:46:52;25.10;;;6.30;;
61025;SDS011;46911;32.650;-16.902;2022-07-22T00:48:56;28.30;;;6.05;;
61025;SDS011;46911;32.650;-16.902;2022-07-22T00:51:02;25.75;;;5.35;;
61025;SDS011;46911;32.650;-16.902;2022-07-22T00:53:03;27.90;;;5.00;;
61025;SDS011;46911;32.650;-16.902;2022-07-22T00:55:07;23.17;;;5.30;;
61025;SDS011;46911;32.650;-16.902;2022-07-22T00:57:10;31.20;;;5.22;;
61025;SDS011;46911;32.650;-16.902;2022-07-22T00:59:12;29.75;;;4.03;;
61025;SDS011;46911;32.650;-16.902;2022-07-22T01:01:16;18.85;;;4.80;;
61025;SDS011;46911;32.650;-16.902;2022-07-22T01:03:17;37.97;;;5.78;;
61025;SDS011;46911;32.650;-16.902;2022-07-22T01:05:19;25.27;;;5.70;;
61025;SDS011;46911;32.650;-16.902;2022-07-22T01:07:20;30.98;;;5.57;;
61025;SDS011;46911;32.650;-16.902;2022-07-22T01:09:23;27.20;;;5.65;;
61025;SDS011;46911;32.650;-16.902;2022-07-22T01:11:24;29.10;;;7.03;;
61025;SDS011;46911;32.650;-16.902;2022-07-22T01:13:28;24.15;;;5.35;;
61025;SDS011;46911;32.650;-16.902;2022-07-22T01:15:33;21.55;;;5.97;;
61025;SDS011;46911;32.650;-16.902;2022-07-22T01:17:37;30.90;;;5.72;;
61025;SDS011;46911;32.650;-16.902;2022-07-22T01:19:42;23.05;;;6.13;;
61025;SDS011;46911;32.650;-16.902;2022-07-22T01:21:46;28.30;;;6.00;;
61025;SDS011;46911;32.650;-16.902;2022-07-22T01:23:47;20.40;;;5.95;;
61025;SDS011;46911;32.650;-16.902;2022-07-22T01:25:51;20.85;;;5.32;;
61025;SDS011;46911;32.650;-16.902;2022-07-22T01:27:52;22.15;;;6.07;;
61025;SDS011;46911;32.650;-16.902;2022-07-22T01:29:56;31.98;;;6.20;;
61025;SDS011;46911;32.650;-16.902;2022-07-22T01:31:59;23.00;;;5.55;;
61025;SDS011;46911;32.650;-16.902;2022-07-22T01:34:00;15.18;;;5.78;;
61025;SDS011;46911;32.650;-16.902;2022-07-22T01:36:07;15.05;;;5.10;;
61025;SDS011;46911;32.650;-16.902;2022-07-22T01:38:11;20.23;;;6.43;;
61025;SDS011;46911;32.650;-16.902;2022-07-22T01:40:15;20.60;;;5.32;;
61025;SDS011;46911;32.650;-16.902;2022-07-22T01:42:18;23.55;;;5.40;;
61025;SDS011;46911;32.650;-16.902;2022-07-22T01:44:19;29.67;;;5.28;;
61025;SDS011;46911;32.650;-16.902;2022-07-22T01:46:20;17.05;;;4.78;;
61025;SDS011;46911;32.650;-16.902;2022-07-22T01:48:24;17.95;;;5.50;;
61025;SDS011;46911;32.650;-16.902;2022-07-22T01:50:25;20.27;;;5.90;;
61025;SDS011;46911;32.650;-16.902;2022-07-22T01:52:28;18.35;;;5.15;;
61025;SDS011;46911;32.650;-16.902;2022-07-22T01:54:29;31.90;;;5.30;;
61025;SDS011;46911;32.650;-16.902;2022-07-22T01:56:30;24.42;;;6.53;;
61025;SDS011;46911;32.650;-16.902;2022-07-22T01:58:33;26.92;;;6.32;;
61025;SDS011;46911;32.650;-16.902;2022-07-22T02:00:41;21.95;;;5.85;;
61025;SDS011;46911;32.650;-16.902;2022-07-22T02:02:48;22.15;;;5.70;;
61025;SDS011;46911;32.650;-16.902;2022-07-22T02:04:53;26.05;;;6.25;;
61025;SDS011;46911;32.650;-16.902;2022-07-22T02:06:56;24.33;;;5.47;;
61025;SDS011;46911;32.650;-16.902;2022-07-22T02:08:57;23.17;;;5.63;;
61025;SDS011;46911;32.650;-16.902;2022-07-22T02:11:18;19.80;;;6.30;;
61025;SDS011;46911;32.650;-16.902;2022-07-22T02:13:30;32.88;;;8.38;;
61025;SDS011;46911;32.650;-16.902;2022-07-22T02:15:35;25.02;;;5.93;;
61025;SDS011;46911;32.650;-16.902;2022-07-22T02:17:37;23.98;;;6.00;;
61025;SDS011;46911;32.650;-16.902;2022-07-22T02:19:42;33.88;;;6.90;;
61025;SDS011;46911;32.650;-16.902;2022-07-22T02:21:46;26.90;;;7.10;;
61025;SDS011;46911;32.650;-16.902;2022-07-22T02:23:47;24.50;;;6.57;;
61025;SDS011;46911;32.650;-16.902;2022-07-22T02:25:50;24.75;;;5.63;;
61025;SDS011;46911;32.650;-16.902;2022-07-22T02:27:54;23.58;;;5.75;;
61025;SDS011;46911;32.650;-16.902;2022-07-22T02:29:54;29.80;;;6.00;;
61025;SDS011;46911;32.650;-16.902;2022-07-22T02:31:56;26.52;;;5.13;;
61025;SDS011;46911;32.650;-16.902;2022-07-22T02:33:57;25.23;;;5.78;;
61025;SDS011;46911;32.650;-16.902;2022-07-22T02:36:03;21.98;;;5.60;;
61025;SDS011;46911;32.650;-16.902;2022-07-22T02:38:08;33.53;;;6.18;;
61025;SDS011;46911;32.650;-16.902;2022-07-22T02:40:13;19.38;;;6.15;;
61025;SDS011;46911;32.650;-16.902;2022-07-22T02:42:16;21.90;;;6.85;;
61025;SDS011;46911;32.650;-16.902;2022-07-22T02:44:23;25.45;;;6.45;;
61025;SDS011;46911;32.650;-16.902;2022-07-22T02:46:26;28.98;;;6.03;;
61025;SDS011;46911;32.650;-16.902;2022-07-22T02:48:37;23.20;;;7.35;;
61025;SDS011;46911;32.650;-16.902;2022-07-22T02:50:38;22.02;;;7.28;;
61025;SDS011;46911;32.650;-16.902;2022-07-22T02:52:41;17.50;;;6.45;;
61025;SDS011;46911;32.650;-16.902;2022-07-22T02:54:44;19.48;;;5.97;;
61025;SDS011;46911;32.650;-16.902;2022-07-22T02:56:45;25.10;;;7.38;;
61025;SDS011;46911;32.650;-16.902;2022-07-22T02:58:51;32.88;;;6.65;;
61025;SDS011;46911;32.650;-16.902;2022-07-22T03:00:53;20.75;;;5.85;;
61025;SDS011;46911;32.650;-16.902;2022-07-22T03:02:54;21.48;;;7.38;;
61025;SDS011;46911;32.650;-16.902;2022-07-22T03:04:55;19.88;;;6.18;;
61025;SDS011;46911;32.650;-16.902;2022-07-22T03:06:56;25.90;;;7.25;;
61025;SDS011;46911;32.650;-16.902;2022-07-22T03:09:00;28.13;;;7.15;;
61025;SDS011;46911;32.650;-16.902;2022-07-22T03:11:05;20.35;;;6.00;;
61025;SDS011;46911;32.650;-16.902;2022-07-22T03:13:06;19.77;;;6.82;;
61025;SDS011;46911;32.650;-16.902;2022-07-22T03:15:07;16.10;;;6.32;;
61025;SDS011;46911;32.650;-16.902;2022-07-22T03:17:10;21.15;;;7.07;;
61025;SDS011;46911;32.650;-16.902;2022-07-22T03:19:12;23.88;;;7.57;;
61025;SDS011;46911;32.650;-16.902;2022-07-22T03:21:18;18.38;;;6.38;;
61025;SDS011;46911;32.650;-16.902;2022-07-22T03:23:19;26.70;;;7.15;;
61025;SDS011;46911;32.650;-16.902;2022-07-22T03:25:20;15.95;;;6.65;;
61025;SDS011;46911;32.650;-16.902;2022-07-22T03:27:21;20.83;;;6.65;;
61025;SDS011;46911;32.650;-16.902;2022-07-22T03:29:25;25.50;;;8.32;;
61025;SDS011;46911;32.650;-16.902;2022-07-22T03:31:29;28.98;;;8.25;;
61025;SDS011;46911;32.650;-16.902;2022-07-22T03:33:30;21.23;;;7.28;;
61025;SDS011;46911;32.650;-16.902;2022-07-22T03:35:31;24.45;;;7.65;;
61025;SDS011;46911;32.650;-16.902;2022-07-22T03:37:37;26.10;;;7.95;;
61025;SDS011;46911;32.650;-16.902;2022-07-22T03:39:40;25.35;;;8.55;;
61025;SDS011;46911;32.650;-16.902;2022-07-22T03:41:41;23.95;;;7.85;;
61025;SDS011;46911;32.650;-16.902;2022-07-22T03:43:44;18.58;;;7.15;;
61025;SDS011;46911;32.650;-16.902;2022-07-22T03:45:47;31.48;;;7.47;;
61025;SDS011;46911;32.650;-16.902;2022-07-22T03:47:50;30.80;;;7.65;;
61025;SDS011;46911;32.650;-16.902;2022-07-22T03:49:52;22.67;;;8.55;;
61025;SDS011;46911;32.650;-16.902;2022-07-22T03:51:59;22.38;;;7.55;;
61025;SDS011;46911;32.650;-16.902;2022-07-22T03:54:09;19.38;;;7.55;;
61025;SDS011;46911;32.650;-16.902;2022-07-22T03:56:15;24.55;;;7.07;;
61025;SDS011;46911;32.650;-16.902;2022-07-22T03:58:17;25.48;;;7.93;;
61025;SDS011;46911;32.650;-16.902;2022-07-22T04:00:21;23.40;;;6.95;;
61025;SDS011;46911;32.650;-16.902;2022-07-22T04:02:24;25.48;;;7.45;;
61025;SDS011;46911;32.650;-16.902;2022-07-22T04:04:28;24.30;;;7.75;;
61025;SDS011;46911;32.650;-16.902;2022-07-22T04:06:32;23.27;;;6.65;;
61025;SDS011;46911;32.650;-16.902;2022-07-22T04:08:41;20.13;;;7.05;;
61025;SDS011;46911;32.650;-16.902;2022-07-22T04:10:45;19.13;;;6.47;;
61025;SDS011;46911;32.650;-16.902;2022-07-22T04:12:46;16.98;;;6.40;;
61025;SDS011;46911;32.650;-16.902;2022-07-22T04:14:52;28.30;;;6.18;;
61025;SDS011;46911;32.650;-16.902;2022-07-22T04:16:55;21.95;;;6.82;;
61025;SDS011;46911;32.650;-16.902;2022-07-22T04:18:58;18.83;;;5.65;;
61025;SDS011;46911;32.650;-16.902;2022-07-22T04:21:34;20.25;;;6.45;;
61025;SDS011;46911;32.650;-16.902;2022-07-22T04:23:42;22.50;;;6.03;;
61025;SDS011;46911;32.650;-16.902;2022-07-22T04:25:49;33.45;;;6.43;;
61025;SDS011;46911;32.650;-16.902;2022-07-22T04:27:50;19.77;;;5.97;;
61025;SDS011;46911;32.650;-16.902;2022-07-22T04:29:53;30.95;;;6.97;;
61025;SDS011;46911;32.650;-16.902;2022-07-22T04:31:54;17.10;;;6.05;;
61025;SDS011;46911;32.650;-16.902;2022-07-22T04:33:54;20.58;;;5.50;;
61025;SDS011;46911;32.650;-16.902;2022-07-22T04:35:58;20.45;;;5.80;;
61025;SDS011;46911;32.650;-16.902;2022-07-22T04:37:59;24.58;;;5.55;;
61025;SDS011;46911;32.650;-16.902;2022-07-22T04:40:01;24.48;;;5.75;;
61025;SDS011;46911;32.650;-16.902;2022-07-22T04:42:05;17.75;;;6.03;;
61025;SDS011;46911;32.650;-16.902;2022-07-22T04:44:07;19.67;;;5.03;;
61025;SDS011;46911;32.650;-16.902;2022-07-22T04:46:08;14.20;;;6.00;;
61025;SDS011;46911;32.650;-16.902;2022-07-22T04:48:16;20.50;;;5.75;;
61025;SDS011;46911;32.650;-16.902;2022-07-22T04:50:23;23.23;;;5.53;;
61025;SDS011;46911;32.650;-16.902;2022-07-22T04:52:33;17.20;;;5.07;;
61025;SDS011;46911;32.650;-16.902;2022-07-22T04:54:35;26.17;;;5.40;;
61025;SDS011;46911;32.650;-16.902;2022-07-22T04:56:39;17.85;;;4.80;;
61025;SDS011;46911;32.650;-16.902;2022-07-22T04:58:43;18.33;;;4.75;;
61025;SDS011;46911;32.650;-16.902;2022-07-22T05:00:47;13.07;;;4.60;;
61025;SDS011;46911;32.650;-16.902;2022-07-22T05:02:48;17.80;;;5.45;;
61025;SDS011;46911;32.650;-16.902;2022-07-22T05:04:48;20.90;;;4.88;;
61025;SDS011;46911;32.650;-16.902;2022-07-22T05:06:50;15.30;;;5.10;;
61025;SDS011;46911;32.650;-16.902;2022-07-22T05:08:51;27.42;;;5.82;;
61025;SDS011;46911;32.650;-16.902;2022-07-22T05:10:56;23.70;;;5.80;;
61025;SDS011;46911;32.650;-16.902;2022-07-22T05:13:03;22.17;;;5.15;;
61025;SDS011;46911;32.650;-16.902;2022-07-22T05:15:07;20.83;;;5.10;;
61025;SDS011;46911;32.650;-16.902;2022-07-22T05:17:11;24.88;;;5.47;;
61025;SDS011;46911;32.650;-16.902;2022-07-22T05:19:22;20.73;;;6.37;;
61025;SDS011;46911;32.650;-16.902;2022-07-22T05:21:24;26.75;;;5.25;;
61025;SDS011;46911;32.650;-16.902;2022-07-22T05:23:25;23.63;;;6.70;;
61025;SDS011;46911;32.650;-16.902;2022-07-22T05:25:31;21.13;;;5.78;;
61025;SDS011;46911;32.650;-16.902;2022-07-22T05:27:35;25.85;;;5.13;;
61025;SDS011;46911;32.650;-16.902;2022-07-22T05:29:36;19.70;;;5.22;;
61025;SDS011;46911;32.650;-16.902;2022-07-22T05:31:37;15.80;;;5.28;;
61025;SDS011;46911;32.650;-16.902;2022-07-22T05:33:38;18.23;;;5.60;;
61025;SDS011;46911;32.650;-16.902;2022-07-22T05:36:02;16.20;;;4.65;;
61025;SDS011;46911;32.650;-16.902;2022-07-22T05:38:10;24.17;;;5.43;;
61025;SDS011;46911;32.650;-16.902;2022-07-22T05:40:16;20.23;;;4.50;;
61025;SDS011;46911;32.650;-16.902;2022-07-22T05:42:17;18.60;;;5.05;;
61025;SDS011;46911;32.650;-16.902;2022-07-22T05:44:20;19.75;;;4.40;;
61025;SDS011;46911;32.650;-16.902;2022-07-22T05:46:23;19.38;;;4.70;;
61025;SDS011;46911;32.650;-16.902;2022-07-22T05:48:24;16.50;;;3.92;;
61025;SDS011;46911;32.650;-16.902;2022-07-22T05:50:26;20.75;;;4.72;;
61025;SDS011;46911;32.650;-16.902;2022-07-22T05:52:30;27.17;;;5.35;;
61025;SDS011;46911;32.650;-16.902;2022-07-22T05:54:31;18.02;;;4.18;;
61025;SDS011;46911;32.650;-16.902;2022-07-22T05:56:34;25.88;;;4.97;;
61025;SDS011;46911;32.650;-16.902;2022-07-22T05:58:35;21.45;;;4.20;;
61025;SDS011;46911;32.650;-16.902;2022-07-22T06:00:38;16.33;;;4.45;;
61025;SDS011;46911;32.650;-16.902;2022-07-22T06:02:42;17.55;;;4.28;;
61025;SDS011;46911;32.650;-16.902;2022-07-22T06:04:47;25.75;;;4.28;;
61025;SDS011;46911;32.650;-16.902;2022-07-22T06:06:55;16.25;;;4.22;;
61025;SDS011;46911;32.650;-16.902;2022-07-22T06:08:55;24.58;;;4.53;;
61025;SDS011;46911;32.650;-16.902;2022-07-22T06:10:57;18.98;;;3.97;;
61025;SDS011;46911;32.650;-16.902;2022-07-22T06:13:00;13.30;;;3.30;;
61025;SDS011;46911;32.650;-16.902;2022-07-22T06:15:06;18.13;;;3.67;;
61025;SDS011;46911;32.650;-16.902;2022-07-22T06:17:12;15.68;;;3.45;;
61025;SDS011;46911;32.650;-16.902;2022-07-22T06:19:17;11.80;;;3.17;;
61025;SDS011;46911;32.650;-16.902;2022-07-22T06:21:20;17.13;;;3.92;;
61025;SDS011;46911;32.650;-16.902;2022-07-22T06:23:24;27.83;;;4.78;;
61025;SDS011;46911;32.650;-16.902;2022-07-22T06:25:25;22.73;;;4.20;;
61025;SDS011;46911;32.650;-16.902;2022-07-22T06:27:26;21.83;;;3.92;;
61025;SDS011;46911;32.650;-16.902;2022-07-22T06:29:28;17.05;;;3.22;;
61025;SDS011;46911;32.650;-16.902;2022-07-22T06:31:29;16.88;;;3.95;;
61025;SDS011;46911;32.650;-16.902;2022-07-22T06:33:30;17.33;;;2.97;;
61025;SDS011;46911;32.650;-16.902;2022-07-22T06:35:39;21.55;;;4.00;;
61025;SDS011;46911;32.650;-16.902;2022-07-22T06:37:44;19.92;;;3.40;;
61025;SDS011;46911;32.650;-16.902;2022-07-22T06:39:45;13.50;;;3.47;;
61025;SDS011;46911;32.650;-16.902;2022-07-22T06:41:50;19.45;;;4.57;;
61025;SDS011;46911;32.650;-16.902;2022-07-22T06:44:14;24.17;;;3.95;;
61025;SDS011;46911;32.650;-16.902;2022-07-22T06:46:21;22.70;;;4.85;;
61025;SDS011;46911;32.650;-16.902;2022-07-22T06:48:26;17.17;;;3.65;;
61025;SDS011;46911;32.650;-16.902;2022-07-22T06:50:29;25.75;;;4.10;;
61025;SDS011;46911;32.650;-16.902;2022-07-22T06:52:30;22.50;;;4.13;;
61025;SDS011;46911;32.650;-16.902;2022-07-22T06:54:34;19.27;;;3.97;;
61025;SDS011;46911;32.650;-16.902;2022-07-22T06:56:37;23.92;;;4.50;;
61025;SDS011;46911;32.650;-16.902;2022-07-22T06:58:41;12.02;;;3.33;;
61025;SDS011;46911;32.650;-16.902;2022-07-22T07:00:46;24.25;;;4.30;;
61025;SDS011;46911;32.650;-16.902;2022-07-22T07:03:10;19.33;;;3.83;;
61025;SDS011;46911;32.650;-16.902;2022-07-22T07:05:11;22.15;;;3.78;;
61025;SDS011;46911;32.650;-16.902;2022-07-22T07:07:11;21.38;;;4.18;;
61025;SDS011;46911;32.650;-16.902;2022-07-22T07:09:35;23.20;;;4.90;;
61025;SDS011;46911;32.650;-16.902;2022-07-22T07:11:44;18.70;;;3.75;;
61025;SDS011;46911;32.650;-16.902;2022-07-22T07:13:51;19.92;;;4.75;;
61025;SDS011;46911;32.650;-16.902;2022-07-22T07:15:55;22.15;;;5.13;;
61025;SDS011;46911;32.650;-16.902;2022-07-22T07:17:56;20.05;;;4.10;;
61025;SDS011;46911;32.650;-16.902;2022-07-22T07:19:59;21.00;;;4.45;;
61025;SDS011;46911;32.650;-16.902;2022-07-22T07:22:01;23.90;;;3.72;;
61025;SDS011;46911;32.650;-16.902;2022-07-22T07:24:06;17.80;;;3.25;;
61025;SDS011;46911;32.650;-16.902;2022-07-22T07:26:10;30.48;;;4.00;;
61025;SDS011;46911;32.650;-16.902;2022-07-22T07:28:13;25.35;;;4.10;;
61025;SDS011;46911;32.650;-16.902;2022-07-22T07:30:29;20.50;;;4.30;;
61025;SDS011;46911;32.650;-16.902;2022-07-22T07:32:30;15.82;;;3.67;;
61025;SDS011;46911;32.650;-16.902;2022-07-22T07:34:31;19.70;;;4.05;;
61025;SDS011;46911;32.650;-16.902;2022-07-22T07:36:35;16.90;;;3.75;;
61025;SDS011;46911;32.650;-16.902;2022-07-22T07:38:36;22.95;;;3.55;;
61025;SDS011;46911;32.650;-16.902;2022-07-22T07:40:39;21.17;;;3.45;;
61025;SDS011;46911;32.650;-16.902;2022-07-22T07:42:42;26.30;;;4.20;;
61025;SDS011;46911;32.650;-16.902;2022-07-22T07:44:46;18.65;;;3.72;;
61025;SDS011;46911;32.650;-16.902;2022-07-22T07:46:49;25.88;;;3.55;;
61025;SDS011;46911;32.650;-16.902;2022-07-22T07:48:52;19.80;;;3.22;;
61025;SDS011;46911;32.650;-16.902;2022-07-22T07:50:55;17.75;;;4.45;;
61025;SDS011;46911;32.650;-16.902;2022-07-22T07:52:59;23.05;;;4.13;;
61025;SDS011;46911;32.650;-16.902;2022-07-22T07:55:01;17.08;;;3.75;;
61025;SDS011;46911;32.650;-16.902;2022-07-22T07:57:02;17.70;;;4.38;;
61025;SDS011;46911;32.650;-16.902;2022-07-22T07:59:03;20.60;;;5.25;;
61025;SDS011;46911;32.650;-16.902;2022-07-22T08:01:04;16.48;;;3.03;;
61025;SDS011;46911;32.650;-16.902;2022-07-22T08:03:05;24.17;;;3.83;;
61025;SDS011;46911;32.650;-16.902;2022-07-22T08:05:07;17.00;;;3.75;;
61025;SDS011;46911;32.650;-16.902;2022-07-22T08:07:12;23.13;;;4.78;;
61025;SDS011;46911;32.650;-16.902;2022-07-22T08:09:17;19.00;;;4.18;;
61025;SDS011;46911;32.650;-16.902;2022-07-22T08:11:21;21.00;;;3.97;;
61025;SDS011;46911;32.650;-16.902;2022-07-22T08:13:41;21.20;;;3.58;;
61025;SDS011;46911;32.650;-16.902;2022-07-22T08:16:03;18.27;;;5.47;;
61025;SDS011;46911;32.650;-16.902;2022-07-22T08:18:06;31.15;;;4.10;;
61025;SDS011;46911;32.650;-16.902;2022-07-22T08:20:09;22.50;;;3.80;;
61025;SDS011;46911;32.650;-16.902;2022-07-22T08:22:10;24.50;;;4.00;;
61025;SDS011;46911;32.650;-16.902;2022-07-22T08:24:14;37.92;;;4.75;;
61025;SDS011;46911;32.650;-16.902;2022-07-22T08:26:15;19.23;;;3.60;;
61025;SDS011;46911;32.650;-16.902;2022-07-22T08:28:16;32.97;;;5.25;;
61025;SDS011;46911;32.650;-16.902;2022-07-22T08:30:22;21.13;;;3.97;;
61025;SDS011;46911;32.650;-16.902;2022-07-22T08:32:24;18.08;;;3.45;;
61025;SDS011;46911;32.650;-16.902;2022-07-22T08:34:24;26.38;;;3.70;;
61025;SDS011;46911;32.650;-16.902;2022-07-22T08:36:30;25.60;;;3.72;;
61025;SDS011;46911;32.650;-16.902;2022-07-22T08:38:38;31.25;;;4.45;;
61025;SDS011;46911;32.650;-16.902;2022-07-22T08:40:41;26.10;;;4.00;;
61025;SDS011;46911;32.650;-16.902;2022-07-22T08:42:45;26.95;;;4.07;;
61025;SDS011;46911;32.650;-16.902;2022-07-22T08:44:51;16.35;;;3.97;;
61025;SDS011;46911;32.650;-16.902;2022-07-22T08:46:58;27.77;;;4.00;;
61025;SDS011;46911;32.650;-16.902;2022-07-22T08:49:23;25.80;;;4.15;;
61025;SDS011;46911;32.650;-16.902;2022-07-22T08:51:42;19.70;;;3.42;;
61025;SDS011;46911;32.650;-16.902;2022-07-22T08:53:54;22.10;;;3.78;;
61025;SDS011;46911;32.650;-16.902;2022-07-22T08:56:00;23.42;;;4.38;;
61025;SDS011;46911;32.650;-16.902;2022-07-22T08:58:02;20.63;;;3.90;;
61025;SDS011;46911;32.650;-16.902;2022-07-22T09:00:09;31.92;;;4.38;;
61025;SDS011;46911;32.650;-16.902;2022-07-22T09:02:11;18.65;;;3.95;;
61025;SDS011;46911;32.650;-16.902;2022-07-22T09:04:15;20.10;;;3.90;;
61025;SDS011;46911;32.650;-16.902;2022-07-22T09:06:21;25.92;;;3.80;;
61025;SDS011;46911;32.650;-16.902;2022-07-22T09:08:23;29.17;;;4.65;;
61025;SDS011;46911;32.650;-16.902;2022-07-22T09:10:33;22.67;;;4.85;;
61025;SDS011;46911;32.650;-16.902;2022-07-22T09:12:51;16.40;;;3.70;;
61025;SDS011;46911;32.650;-16.902;2022-07-22T09:15:14;22.98;;;4.43;;
61025;SDS011;46911;32.650;-16.902;2022-07-22T09:17:24;25.33;;;3.92;;
61025;SDS011;46911;32.650;-16.902;2022-07-22T09:19:49;19.95;;;3.40;;
61025;SDS011;46911;32.650;-16.902;2022-07-22T09:22:14;27.80;;;3.65;;
61025;SDS011;46911;32.650;-16.902;2022-07-22T09:24:38;21.05;;;4.03;;
61025;SDS011;46911;32.650;-16.902;2022-07-22T09:26:58;19.23;;;3.95;;
61025;SDS011;46911;32.650;-16.902;2022-07-22T09:29:07;24.20;;;4.22;;
61025;SDS011;46911;32.650;-16.902;2022-07-22T09:31:28;17.35;;;2.83;;
61025;SDS011;46911;32.650;-16.902;2022-07-22T09:33:58;29.98;;;4.30;;
61025;SDS011;46911;32.650;-16.902;2022-07-22T09:36:03;18.10;;;3.70;;
61025;SDS011;46911;32.650;-16.902;2022-07-22T09:38:11;24.80;;;3.55;;
61025;SDS011;46911;32.650;-16.902;2022-07-22T09:40:21;22.10;;;3.67;;
61025;SDS011;46911;32.650;-16.902;2022-07-22T09:42:26;29.73;;;4.05;;
61025;SDS011;46911;32.650;-16.902;2022-07-22T09:44:48;24.15;;;3.85;;
61025;SDS011;46911;32.650;-16.902;2022-07-22T09:47:26;32.25;;;4.00;;
61025;SDS011;46911;32.650;-16.902;2022-07-22T09:50:00;21.48;;;3.75;;
61025;SDS011;46911;32.650;-16.902;2022-07-22T09:52:15;20.58;;;3.53;;
61025;SDS011;46911;32.650;-16.902;2022-07-22T09:54:39;19.08;;;3.30;;
61025;SDS011;46911;32.650;-16.902;2022-07-22T09:56:43;22.83;;;3.53;;
61025;SDS011;46911;32.650;-16.902;2022-07-22T09:58:53;23.33;;;3.63;;
61025;SDS011;46911;32.650;-16.902;2022-07-22T10:01:08;23.42;;;4.35;;
61025;SDS011;46911;32.650;-16.902;2022-07-22T10:03:17;18.88;;;3.70;;
61025;SDS011;46911;32.650;-16.902;2022-07-22T10:05:21;25.27;;;4.03;;
61025;SDS011;46911;32.650;-16.902;2022-07-22T10:07:25;34.58;;;4.88;;
61025;SDS011;46911;32.650;-16.902;2022-07-22T10:09:27;24.90;;;4.30;;
61025;SDS011;46911;32.650;-16.902;2022-07-22T10:11:30;18.80;;;3.33;;
61025;SDS011;46911;32.650;-16.902;2022-07-22T10:13:33;19.77;;;5.00;;
61025;SDS011;46911;32.650;-16.902;2022-07-22T10:15:42;17.35;;;3.90;;
61025;SDS011;46911;32.650;-16.902;2022-07-22T10:17:46;20.92;;;4.22;;
61025;SDS011;46911;32.650;-16.902;2022-07-22T10:19:48;24.05;;;4.32;;
61025;SDS011;46911;32.650;-16.902;2022-07-22T10:21:50;27.25;;;4.63;;
61025;SDS011;46911;32.650;-16.902;2022-07-22T10:24:09;21.92;;;4.40;;
61025;SDS011;46911;32.650;-16.902;2022-07-22T10:26:14;25.35;;;4.65;;
61025;SDS011;46911;32.650;-16.902;2022-07-22T10:28:25;23.63;;;4.47;;
61025;SDS011;46911;32.650;-16.902;2022-07-22T10:32:37;18.98;;;3.95;;
61025;SDS011;46911;32.650;-16.902;2022-07-22T10:34:38;24.45;;;4.25;;
61025;SDS011;46911;32.650;-16.902;2022-07-22T10:36:39;17.90;;;3.80;;
61025;SDS011;46911;32.650;-16.902;2022-07-22T10:41:40;27.67;;;6.22;;
61025;SDS011;46911;32.650;-16.902;2022-07-22T10:45:49;24.17;;;4.28;;
61025;SDS011;46911;32.650;-16.902;2022-07-22T10:47:52;21.98;;;3.75;;
61025;SDS011;46911;32.650;-16.902;2022-07-22T10:49:54;26.70;;;5.03;;
61025;SDS011;46911;32.650;-16.902;2022-07-22T10:54:12;32.30;;;5.10;;
61025;SDS011;46911;32.650;-16.902;2022-07-22T10:56:22;20.05;;;4.03;;
61025;SDS011;46911;32.650;-16.902;2022-07-22T11:00:33;23.58;;;4.57;;
61025;SDS011;46911;32.650;-16.902;2022-07-22T11:02:36;32.53;;;8.43;;
61025;SDS011;46911;32.650;-16.902;2022-07-22T11:04:38;22.48;;;4.05;;
61025;SDS011;46911;32.650;-16.902;2022-07-22T11:06:39;24.67;;;4.85;;
61025;SDS011;46911;32.650;-16.902;2022-07-22T11:08:46;23.02;;;4.18;;
61025;SDS011;46911;32.650;-16.902;2022-07-22T11:11:15;27.33;;;4.35;;
61025;SDS011;46911;32.650;-16.902;2022-07-22T11:13:32;32.38;;;5.55;;
61025;SDS011;46911;32.650;-16.902;2022-07-22T11:15:37;29.75;;;6.15;;
61025;SDS011;46911;32.650;-16.902;2022-07-22T11:17:38;29.58;;;4.43;;
61025;SDS011;46911;32.650;-16.902;2022-07-22T11:19:43;29.35;;;4.32;;
61025;SDS011;46911;32.650;-16.902;2022-07-22T11:21:48;34.85;;;4.90;;
61025;SDS011;46911;32.650;-16.902;2022-07-22T11:23:54;21.08;;;4.43;;
61025;SDS011;46911;32.650;-16.902;2022-07-22T11:25:57;20.58;;;4.05;;
61025;SDS011;46911;32.650;-16.902;2022-07-22T11:28:02;21.98;;;4.68;;
61025;SDS011;46911;32.650;-16.902;2022-07-22T11:30:06;26.20;;;4.05;;
61025;SDS011;46911;32.650;-16.902;2022-07-22T11:32:08;19.17;;;4.32;;
61025;SDS011;46911;32.650;-16.902;2022-07-22T11:34:11;20.42;;;4.10;;
61025;SDS011;46911;32.650;-16.902;2022-07-22T11:36:14;20.98;;;4.20;;
61025;SDS011;46911;32.650;-16.902;2022-07-22T11:38:15;23.52;;;3.95;;
61025;SDS011;46911;32.650;-16.902;2022-07-22T11:40:16;23.85;;;3.92;;
61025;SDS011;46911;32.650;-16.902;2022-07-22T11:42:19;21.42;;;4.00;;
61025;SDS011;46911;32.650;-16.902;2022-07-22T11:44:23;21.75;;;4.53;;
61025;SDS011;46911;32.650;-16.902;2022-07-22T11:46:25;21.35;;;4.32;;
61025;SDS011;46911;32.650;-16.902;2022-07-22T11:48:29;22.17;;;5.38;;
61025;SDS011;46911;32.650;-16.902;2022-07-22T11:50:33;30.35;;;4.28;;
61025;SDS011;46911;32.650;-16.902;2022-07-22T11:52:34;25.42;;;6.22;;
61025;SDS011;46911;32.650;-16.902;2022-07-22T11:54:34;28.40;;;5.28;;
61025;SDS011;46911;32.650;-16.902;2022-07-22T11:56:38;31.17;;;5.03;;
61025;SDS011;46911;32.650;-16.902;2022-07-22T12:00:46;22.92;;;4.47;;
61025;SDS011;46911;32.650;-16.902;2022-07-22T12:02:53;24.75;;;4.47;;
61025;SDS011;46911;32.650;-16.902;2022-07-22T12:04:57;23.58;;;4.75;;
61025;SDS011;46911;32.650;-16.902;2022-07-22T12:06:58;17.33;;;4.47;;
61025;SDS011;46911;32.650;-16.902;2022-07-22T12:09:04;25.02;;;4.80;;
61025;SDS011;46911;32.650;-16.902;2022-07-22T12:11:05;19.15;;;4.63;;
61025;SDS011;46911;32.650;-16.902;2022-07-22T12:13:10;22.15;;;5.05;;
61025;SDS011;46911;32.650;-16.902;2022-07-22T12:15:11;24.92;;;4.63;;